sensor_id;sensor_type;location;lat;lon;timestamp;temperature;humidity
31133;DHT22;17779;50.942;4.026;2022-08-21T00:02:19;18.40;99.90
31133;DHT22;17779;50.942;4.026;2022-08-21T00:04:45;18.30;99.90
31133;DHT22;17779;50.942;4.026;2022-08-21T00:07:12;18.50;99.90
31133;DHT22;17779;50.942;4.026;2022-08-21T00:09:37;18.60;99.90
31133;DHT22;17779;50.942;4.026;2022-08-21T00:12:04;18.30;99.90
31133;DHT22;17779;50.942;4.026;2022-08-21T00:14:30;18.30;99.90
31133;DHT22;17779;50.942;4.026;2022-08-21T00:16:55;18.10;99.90
31133;DHT22;17779;50.942;4.026;2022-08-21T00:19:21;17.80;99.90
31133;DHT22;17779;50.942;4.026;2022-08-21T00:21:50;17.90;99.90
31133;DHT22;17779;50.942;4.026;2022-08-21T00:24:17;17.80;99.90
31133;DHT22;17779;50.942;4.026;2022-08-21T00:26:42;17.70;99.90
31133;DHT22;17779;50.942;4.026;2022-08-21T00:29:08;17.70;99.90
31133;DHT22;17779;50.942;4.026;2022-08-21T00:31:35;17.80;99.90
31133;DHT22;17779;50.942;4.026;2022-08-21T00:34:00;18.00;99.90
31133;DHT22;17779;50.942;4.026;2022-08-21T00:36:26;18.00;99.90
31133;DHT22;17779;50.942;4.026;2022-08-21T00:38:52;17.80;99.90
31133;DHT22;17779;50.942;4.026;2022-08-21T00:41:18;17.70;99.90
31133;DHT22;17779;50.942;4.026;2022-08-21T00:43:44;17.40;99.90
31133;DHT22;17779;50.942;4.026;2022-08-21T00:46:10;17.20;99.90
31133;DHT22;17779;50.942;4.026;2022-08-21T00:48:35;17.00;99.90
31133;DHT22;17779;50.942;4.026;2022-08-21T00:51:04;17.00;99.90
31133;DHT22;17779;50.942;4.026;2022-08-21T00:53:30;16.90;99.90
31133;DHT22;17779;50.942;4.026;2022-08-21T00:55:58;17.00;99.90
31133;DHT22;17779;50.942;4.026;2022-08-21T00:58:26;17.00;99.90
31133;DHT22;17779;50.942;4.026;2022-08-21T01:00:52;17.00;99.90
31133;DHT22;17779;50.942;4.026;2022-08-21T01:03:21;17.00;99.90
31133;DHT22;17779;50.942;4.026;2022-08-21T01:05:47;17.10;99.90
31133;DHT22;17779;50.942;4.026;2022-08-21T01:08:13;16.90;99.90
31133;DHT22;17779;50.942;4.026;2022-08-21T01:10:40;16.70;99.90
31133;DHT22;17779;50.942;4.026;2022-08-21T01:13:06;16.60;99.90
31133;DHT22;17779;50.942;4.026;2022-08-21T01:15:34;16.60;99.90
31133;DHT22;17779;50.942;4.026;2022-08-21T01:18:01;16.50;99.90
31133;DHT22;17779;50.942;4.026;2022-08-21T01:20:27;16.50;99.90
31133;DHT22;17779;50.942;4.026;2022-08-21T01:22:53;16.70;99.90
31133;DHT22;17779;50.942;4.026;2022-08-21T01:25:18;16.70;99.90
31133;DHT22;17779;50.942;4.026;2022-08-21T01:27:48;16.60;99.90
31133;DHT22;17779;50.942;4.026;2022-08-21T01:32:39;16.40;99.90
31133;DHT22;17779;50.942;4.026;2022-08-21T01:35:05;16.40;99.90
31133;DHT22;17779;50.942;4.026;2022-08-21T01:37:31;16.40;99.90
31133;DHT22;17779;50.942;4.026;2022-08-21T01:39:57;16.50;99.90
31133;DHT22;17779;50.942;4.026;2022-08-21T01:42:23;16.70;99.90
31133;DHT22;17779;50.942;4.026;2022-08-21T01:44:48;16.70;99.90
31133;DHT22;17779;50.942;4.026;2022-08-21T01:47:14;16.60;99.90
31133;DHT22;17779;50.942;4.026;2022-08-21T01:49:41;16.50;99.90
31133;DHT22;17779;50.942;4.026;2022-08-21T01:52:07;16.60;99.90
31133;DHT22;17779;50.942;4.026;2022-08-21T01:54:34;16.70;99.90
31133;DHT22;17779;50.942;4.026;2022-08-21T01:57:00;16.70;99.90
31133;DHT22;17779;50.942;4.026;2022-08-21T01:59:25;16.70;99.90
31133;DHT22;17779;50.942;4.026;2022-08-21T02:01:51;16.60;99.90
31133;DHT22;17779;50.942;4.026;2022-08-21T02:04:19;16.60;99.90
31133;DHT22;17779;50.942;4.026;2022-08-21T02:06:45;16.40;99.90
31133;DHT22;17779;50.942;4.026;2022-08-21T02:09:11;16.10;99.90
31133;DHT22;17779;50.942;4.026;2022-08-21T02:11:37;16.00;99.90
31133;DHT22;17779;50.942;4.026;2022-08-21T02:14:07;16.20;99.90
31133;DHT22;17779;50.942;4.026;2022-08-21T02:16:33;16.40;99.90
31133;DHT22;17779;50.942;4.026;2022-08-21T02:18:59;16.40;99.90
31133;DHT22;17779;50.942;4.026;2022-08-21T02:21:25;16.40;99.90
31133;DHT22;17779;50.942;4.026;2022-08-21T02:23:51;16.40;99.90
31133;DHT22;17779;50.942;4.026;2022-08-21T02:26:16;16.40;99.90
31133;DHT22;17779;50.942;4.026;2022-08-21T02:28:42;16.40;99.90
31133;DHT22;17779;50.942;4.026;2022-08-21T02:31:08;16.10;99.90
31133;DHT22;17779;50.942;4.026;2022-08-21T02:33:34;15.90;99.90
31133;DHT22;17779;50.942;4.026;2022-08-21T02:35:59;15.80;99.90
31133;DHT22;17779;50.942;4.026;2022-08-21T02:38:27;15.90;99.90
31133;DHT22;17779;50.942;4.026;2022-08-21T02:40:53;16.00;99.90
31133;DHT22;17779;50.942;4.026;2022-08-21T02:43:20;16.00;99.90
31133;DHT22;17779;50.942;4.026;2022-08-21T02:45:46;16.00;99.90
31133;DHT22;17779;50.942;4.026;2022-08-21T02:48:14;15.90;99.90
31133;DHT22;17779;50.942;4.026;2022-08-21T02:50:42;15.90;99.90
31133;DHT22;17779;50.942;4.026;2022-08-21T02:53:09;15.90;99.90
31133;DHT22;17779;50.942;4.026;2022-08-21T02:55:35;15.80;99.90
31133;DHT22;17779;50.942;4.026;2022-08-21T02:58:01;15.80;99.90
31133;DHT22;17779;50.942;4.026;2022-08-21T03:00:27;15.90;99.90
31133;DHT22;17779;50.942;4.026;2022-08-21T03:02:53;15.90;99.90
31133;DHT22;17779;50.942;4.026;2022-08-21T03:05:20;15.90;99.90
31133;DHT22;17779;50.942;4.026;2022-08-21T03:07:47;15.90;99.90
31133;DHT22;17779;50.942;4.026;2022-08-21T03:10:13;16.00;99.90
31133;DHT22;17779;50.942;4.026;2022-08-21T03:12:38;15.90;99.90
31133;DHT22;17779;50.942;4.026;2022-08-21T03:15:05;15.90;99.90
31133;DHT22;17779;50.942;4.026;2022-08-21T03:17:31;16.00;99.90
31133;DHT22;17779;50.942;4.026;2022-08-21T03:19:57;15.80;99.90
31133;DHT22;17779;50.942;4.026;2022-08-21T03:22:23;15.60;99.90
31133;DHT22;17779;50.942;4.026;2022-08-21T03:24:48;15.70;99.90
31133;DHT22;17779;50.942;4.026;2022-08-21T03:27:14;15.90;99.90
31133;DHT22;17779;50.942;4.026;2022-08-21T03:29:40;16.00;99.90
31133;DHT22;17779;50.942;4.026;2022-08-21T03:32:06;15.80;99.90
31133;DHT22;17779;50.942;4.026;2022-08-21T03:34:35;15.80;99.90
31133;DHT22;17779;50.942;4.026;2022-08-21T03:37:00;15.80;99.90
31133;DHT22;17779;50.942;4.026;2022-08-21T03:39:26;15.80;99.90
31133;DHT22;17779;50.942;4.026;2022-08-21T03:41:52;15.70;99.90
31133;DHT22;17779;50.942;4.026;2022-08-21T03:44:19;15.70;99.90
31133;DHT22;17779;50.942;4.026;2022-08-21T03:46:45;15.80;99.90
31133;DHT22;17779;50.942;4.026;2022-08-21T03:49:10;15.80;99.90
31133;DHT22;17779;50.942;4.026;2022-08-21T03:51:36;15.70;99.90
31133;DHT22;17779;50.942;4.026;2022-08-21T03:54:02;15.60;99.90
31133;DHT22;17779;50.942;4.026;2022-08-21T03:56:28;15.50;99.90
31133;DHT22;17779;50.942;4.026;2022-08-21T03:58:53;15.50;99.90
31133;DHT22;17779;50.942;4.026;2022-08-21T04:01:19;15.40;99.90
31133;DHT22;17779;50.942;4.026;2022-08-21T04:03:44;15.50;99.90
31133;DHT22;17779;50.942;4.026;2022-08-21T04:06:10;15.40;99.90
31133;DHT22;17779;50.942;4.026;2022-08-21T04:08:36;15.30;99.90
31133;DHT22;17779;50.942;4.026;2022-08-21T04:11:01;15.30;99.90
31133;DHT22;17779;50.942;4.026;2022-08-21T04:13:27;15.30;99.90
31133;DHT22;17779;50.942;4.026;2022-08-21T04:15:56;15.30;99.90
31133;DHT22;17779;50.942;4.026;2022-08-21T04:18:23;15.30;99.90
31133;DHT22;17779;50.942;4.026;2022-08-21T04:20:50;15.60;99.90
31133;DHT22;17779;50.942;4.026;2022-08-21T04:23:17;15.60;99.90
31133;DHT22;17779;50.942;4.026;2022-08-21T04:25:43;15.50;99.90
31133;DHT22;17779;50.942;4.026;2022-08-21T04:28:09;15.40;99.90
31133;DHT22;17779;50.942;4.026;2022-08-21T04:30:35;15.40;99.90
31133;DHT22;17779;50.942;4.026;2022-08-21T04:33:00;15.30;99.90
31133;DHT22;17779;50.942;4.026;2022-08-21T04:35:26;15.30;99.90
31133;DHT22;17779;50.942;4.026;2022-08-21T04:37:52;15.40;99.90
31133;DHT22;17779;50.942;4.026;2022-08-21T04:40:18;15.40;99.90
31133;DHT22;17779;50.942;4.026;2022-08-21T04:42:46;15.40;99.90
31133;DHT22;17779;50.942;4.026;2022-08-21T04:45:16;15.30;99.90
31133;DHT22;17779;50.942;4.026;2022-08-21T04:47:41;15.30;99.90
31133;DHT22;17779;50.942;4.026;2022-08-21T04:50:07;15.20;99.90
31133;DHT22;17779;50.942;4.026;2022-08-21T04:52:33;15.20;99.90
31133;DHT22;17779;50.942;4.026;2022-08-21T04:54:58;15.20;99.90
31133;DHT22;17779;50.942;4.026;2022-08-21T04:57:25;15.20;99.90
31133;DHT22;17779;50.942;4.026;2022-08-21T04:59:52;15.30;99.90
31133;DHT22;17779;50.942;4.026;2022-08-21T05:02:17;15.40;99.90
31133;DHT22;17779;50.942;4.026;2022-08-21T05:04:45;15.40;99.90
31133;DHT22;17779;50.942;4.026;2022-08-21T05:07:15;15.30;99.90
31133;DHT22;17779;50.942;4.026;2022-08-21T05:09:41;15.30;99.90
31133;DHT22;17779;50.942;4.026;2022-08-21T05:12:07;15.40;99.90
31133;DHT22;17779;50.942;4.026;2022-08-21T05:14:33;15.50;99.90
31133;DHT22;17779;50.942;4.026;2022-08-21T05:16:59;15.60;99.90
31133;DHT22;17779;50.942;4.026;2022-08-21T05:19:25;15.60;99.90
31133;DHT22;17779;50.942;4.026;2022-08-21T05:21:51;15.50;99.90
31133;DHT22;17779;50.942;4.026;2022-08-21T05:24:16;15.20;99.90
31133;DHT22;17779;50.942;4.026;2022-08-21T05:26:43;15.20;99.90
31133;DHT22;17779;50.942;4.026;2022-08-21T05:29:09;15.40;99.90
31133;DHT22;17779;50.942;4.026;2022-08-21T05:31:36;15.70;99.90
31133;DHT22;17779;50.942;4.026;2022-08-21T05:34:02;15.80;99.90
31133;DHT22;17779;50.942;4.026;2022-08-21T05:36:28;15.80;99.90
31133;DHT22;17779;50.942;4.026;2022-08-21T05:38:53;15.80;99.90
31133;DHT22;17779;50.942;4.026;2022-08-21T05:41:19;15.90;99.90
31133;DHT22;17779;50.942;4.026;2022-08-21T05:43:45;16.10;99.90
31133;DHT22;17779;50.942;4.026;2022-08-21T05:46:11;16.30;99.90
31133;DHT22;17779;50.942;4.026;2022-08-21T05:48:36;16.40;99.90
31133;DHT22;17779;50.942;4.026;2022-08-21T05:51:06;16.40;99.90
31133;DHT22;17779;50.942;4.026;2022-08-21T05:53:32;16.30;99.90
31133;DHT22;17779;50.942;4.026;2022-08-21T05:55:58;16.40;99.90
31133;DHT22;17779;50.942;4.026;2022-08-21T05:58:24;16.50;99.90
31133;DHT22;17779;50.942;4.026;2022-08-21T06:00:50;16.60;99.90
31133;DHT22;17779;50.942;4.026;2022-08-21T06:03:17;16.80;99.90
31133;DHT22;17779;50.942;4.026;2022-08-21T06:05:44;16.90;99.90
31133;DHT22;17779;50.942;4.026;2022-08-21T06:08:10;17.00;99.90
31133;DHT22;17779;50.942;4.026;2022-08-21T06:10:36;17.10;99.90
31133;DHT22;17779;50.942;4.026;2022-08-21T06:13:02;17.30;99.90
31133;DHT22;17779;50.942;4.026;2022-08-21T06:15:28;17.50;99.90
31133;DHT22;17779;50.942;4.026;2022-08-21T06:17:53;17.50;99.90
31133;DHT22;17779;50.942;4.026;2022-08-21T06:20:19;17.50;99.90
31133;DHT22;17779;50.942;4.026;2022-08-21T06:22:45;17.60;99.90
31133;DHT22;17779;50.942;4.026;2022-08-21T06:25:10;17.70;99.90
31133;DHT22;17779;50.942;4.026;2022-08-21T06:27:36;17.90;99.90
31133;DHT22;17779;50.942;4.026;2022-08-21T06:30:02;17.90;99.90
31133;DHT22;17779;50.942;4.026;2022-08-21T06:32:28;18.00;99.90
31133;DHT22;17779;50.942;4.026;2022-08-21T06:34:54;18.20;99.90
31133;DHT22;17779;50.942;4.026;2022-08-21T06:37:19;18.20;99.90
31133;DHT22;17779;50.942;4.026;2022-08-21T06:39:45;18.20;99.90
31133;DHT22;17779;50.942;4.026;2022-08-21T06:42:16;18.30;99.90
31133;DHT22;17779;50.942;4.026;2022-08-21T06:44:42;18.30;99.90
31133;DHT22;17779;50.942;4.026;2022-08-21T06:47:08;18.40;99.90
31133;DHT22;17779;50.942;4.026;2022-08-21T06:49:34;18.80;99.90
31133;DHT22;17779;50.942;4.026;2022-08-21T06:52:00;19.40;99.90
31133;DHT22;17779;50.942;4.026;2022-08-21T06:54:25;20.50;99.90
31133;DHT22;17779;50.942;4.026;2022-08-21T06:56:51;21.10;99.90
31133;DHT22;17779;50.942;4.026;2022-08-21T06:59:17;20.90;99.90
31133;DHT22;17779;50.942;4.026;2022-08-21T07:01:42;20.70;99.90
31133;DHT22;17779;50.942;4.026;2022-08-21T07:04:08;20.50;99.90
31133;DHT22;17779;50.942;4.026;2022-08-21T07:06:34;20.50;99.90
31133;DHT22;17779;50.942;4.026;2022-08-21T07:09:00;21.10;99.90
31133;DHT22;17779;50.942;4.026;2022-08-21T07:11:26;22.70;99.90
31133;DHT22;17779;50.942;4.026;2022-08-21T07:13:52;24.00;99.90
31133;DHT22;17779;50.942;4.026;2022-08-21T07:16:22;25.10;99.90
31133;DHT22;17779;50.942;4.026;2022-08-21T07:18:48;26.10;99.90
31133;DHT22;17779;50.942;4.026;2022-08-21T07:21:14;27.00;99.90
31133;DHT22;17779;50.942;4.026;2022-08-21T07:23:41;27.30;99.90
31133;DHT22;17779;50.942;4.026;2022-08-21T07:26:08;26.50;99.90
31133;DHT22;17779;50.942;4.026;2022-08-21T07:28:34;27.00;99.90
31133;DHT22;17779;50.942;4.026;2022-08-21T07:31:00;28.20;99.90
31133;DHT22;17779;50.942;4.026;2022-08-21T07:33:26;28.60;99.90
31133;DHT22;17779;50.942;4.026;2022-08-21T07:35:53;29.00;99.90
31133;DHT22;17779;50.942;4.026;2022-08-21T07:38:20;29.10;99.90
31133;DHT22;17779;50.942;4.026;2022-08-21T07:40:46;29.10;99.90
31133;DHT22;17779;50.942;4.026;2022-08-21T07:43:13;28.50;99.90
31133;DHT22;17779;50.942;4.026;2022-08-21T07:45:42;28.30;99.90
31133;DHT22;17779;50.942;4.026;2022-08-21T07:48:07;27.90;99.90
31133;DHT22;17779;50.942;4.026;2022-08-21T07:50:33;27.40;99.90
31133;DHT22;17779;50.942;4.026;2022-08-21T07:52:59;27.70;99.90
31133;DHT22;17779;50.942;4.026;2022-08-21T07:55:25;27.60;99.90
31133;DHT22;17779;50.942;4.026;2022-08-21T07:57:50;27.40;99.90
31133;DHT22;17779;50.942;4.026;2022-08-21T08:00:18;26.60;99.90
31133;DHT22;17779;50.942;4.026;2022-08-21T08:02:45;27.70;99.90
31133;DHT22;17779;50.942;4.026;2022-08-21T08:05:12;28.60;99.90
31133;DHT22;17779;50.942;4.026;2022-08-21T08:07:38;28.40;99.90
31133;DHT22;17779;50.942;4.026;2022-08-21T08:10:04;28.40;99.90
31133;DHT22;17779;50.942;4.026;2022-08-21T08:12:33;28.90;99.90
31133;DHT22;17779;50.942;4.026;2022-08-21T08:14:59;29.70;99.90
31133;DHT22;17779;50.942;4.026;2022-08-21T08:17:25;30.60;99.90
31133;DHT22;17779;50.942;4.026;2022-08-21T08:19:51;31.90;99.90
31133;DHT22;17779;50.942;4.026;2022-08-21T08:22:18;31.90;99.90
31133;DHT22;17779;50.942;4.026;2022-08-21T08:24:49;31.00;99.90
31133;DHT22;17779;50.942;4.026;2022-08-21T08:27:15;31.40;99.90
31133;DHT22;17779;50.942;4.026;2022-08-21T08:29:41;30.10;99.90
31133;DHT22;17779;50.942;4.026;2022-08-21T08:32:07;29.50;99.90
31133;DHT22;17779;50.942;4.026;2022-08-21T08:34:34;29.10;99.90
31133;DHT22;17779;50.942;4.026;2022-08-21T08:37:00;29.70;99.90
31133;DHT22;17779;50.942;4.026;2022-08-21T08:39:26;28.60;99.90
31133;DHT22;17779;50.942;4.026;2022-08-21T08:42:14;28.00;99.90
31133;DHT22;17779;50.942;4.026;2022-08-21T08:44:43;29.40;99.90
31133;DHT22;17779;50.942;4.026;2022-08-21T08:47:10;29.30;99.90
31133;DHT22;17779;50.942;4.026;2022-08-21T08:49:40;30.20;99.90
31133;DHT22;17779;50.942;4.026;2022-08-21T08:52:18;30.30;99.90
31133;DHT22;17779;50.942;4.026;2022-08-21T08:54:47;29.70;99.90
31133;DHT22;17779;50.942;4.026;2022-08-21T08:57:20;29.20;99.90
31133;DHT22;17779;50.942;4.026;2022-08-21T08:59:49;30.00;99.90
31133;DHT22;17779;50.942;4.026;2022-08-21T09:02:15;28.90;99.90
31133;DHT22;17779;50.942;4.026;2022-08-21T09:04:42;28.80;99.90
31133;DHT22;17779;50.942;4.026;2022-08-21T09:09:51;31.20;99.70
31133;DHT22;17779;50.942;4.026;2022-08-21T09:15:05;30.70;99.90
31133;DHT22;17779;50.942;4.026;2022-08-21T09:20:23;33.00;96.10
31133;DHT22;17779;50.942;4.026;2022-08-21T09:23:17;33.90;94.50
31133;DHT22;17779;50.942;4.026;2022-08-21T09:25:45;31.60;95.60
31133;DHT22;17779;50.942;4.026;2022-08-21T09:28:15;30.80;96.80
31133;DHT22;17779;50.942;4.026;2022-08-21T09:30:41;30.20;97.80
31133;DHT22;17779;50.942;4.026;2022-08-21T09:33:08;29.20;98.90
31133;DHT22;17779;50.942;4.026;2022-08-21T09:35:34;28.40;99.90
31133;DHT22;17779;50.942;4.026;2022-08-21T09:38:03;27.50;99.90
31133;DHT22;17779;50.942;4.026;2022-08-21T09:40:45;26.70;99.90
31133;DHT22;17779;50.942;4.026;2022-08-21T09:45:41;27.60;99.90
31133;DHT22;17779;50.942;4.026;2022-08-21T09:48:08;30.00;99.90
31133;DHT22;17779;50.942;4.026;2022-08-21T09:50:34;31.10;99.10
31133;DHT22;17779;50.942;4.026;2022-08-21T09:53:00;32.10;97.10
31133;DHT22;17779;50.942;4.026;2022-08-21T09:55:33;32.00;96.00
31133;DHT22;17779;50.942;4.026;2022-08-21T09:58:32;30.40;97.70
31133;DHT22;17779;50.942;4.026;2022-08-21T10:00:59;29.80;98.50
31133;DHT22;17779;50.942;4.026;2022-08-21T10:03:26;31.10;97.90
31133;DHT22;17779;50.942;4.026;2022-08-21T10:06:02;31.50;96.20
31133;DHT22;17779;50.942;4.026;2022-08-21T10:08:34;30.20;97.10
31133;DHT22;17779;50.942;4.026;2022-08-21T10:11:12;28.80;98.80
31133;DHT22;17779;50.942;4.026;2022-08-21T10:18:41;30.20;98.20
31133;DHT22;17779;50.942;4.026;2022-08-21T10:21:10;30.50;97.00
31133;DHT22;17779;50.942;4.026;2022-08-21T10:28:40;31.50;96.00
31133;DHT22;17779;50.942;4.026;2022-08-21T10:31:18;31.90;94.60
31133;DHT22;17779;50.942;4.026;2022-08-21T10:34:06;31.50;94.40
31133;DHT22;17779;50.942;4.026;2022-08-21T10:36:43;30.70;94.90
31133;DHT22;17779;50.942;4.026;2022-08-21T10:47:05;29.60;96.10
31133;DHT22;17779;50.942;4.026;2022-08-21T10:49:36;29.70;95.90
31133;DHT22;17779;50.942;4.026;2022-08-21T10:52:18;29.70;95.90
31133;DHT22;17779;50.942;4.026;2022-08-21T10:54:55;30.50;95.70
31133;DHT22;17779;50.942;4.026;2022-08-21T11:00:05;33.40;91.60
31133;DHT22;17779;50.942;4.026;2022-08-21T11:02:42;32.80;91.40
31133;DHT22;17779;50.942;4.026;2022-08-21T11:07:46;30.20;94.00
31133;DHT22;17779;50.942;4.026;2022-08-21T11:10:14;30.10;95.30
31133;DHT22;17779;50.942;4.026;2022-08-21T11:12:49;30.80;94.20
31133;DHT22;17779;50.942;4.026;2022-08-21T11:15:23;30.80;93.90
31133;DHT22;17779;50.942;4.026;2022-08-21T11:18:00;30.70;94.00
31133;DHT22;17779;50.942;4.026;2022-08-21T11:23:13;29.50;95.00
31133;DHT22;17779;50.942;4.026;2022-08-21T11:28:42;30.70;94.60
31133;DHT22;17779;50.942;4.026;2022-08-21T11:33:44;31.40;92.90
31133;DHT22;17779;50.942;4.026;2022-08-21T11:38:54;32.20;91.90
31133;DHT22;17779;50.942;4.026;2022-08-21T11:43:54;31.80;92.40
31133;DHT22;17779;50.942;4.026;2022-08-21T11:46:26;31.40;92.00
31133;DHT22;17779;50.942;4.026;2022-08-21T11:51:22;31.10;92.60
31133;DHT22;17779;50.942;4.026;2022-08-21T11:54:00;30.20;93.70
31133;DHT22;17779;50.942;4.026;2022-08-21T11:56:35;29.60;93.90
31133;DHT22;17779;50.942;4.026;2022-08-21T11:59:09;30.30;93.80
31133;DHT22;17779;50.942;4.026;2022-08-21T12:01:36;30.50;93.30
31133;DHT22;17779;50.942;4.026;2022-08-21T12:04:04;29.90;93.90
31133;DHT22;17779;50.942;4.026;2022-08-21T12:06:34;29.80;94.40
31133;DHT22;17779;50.942;4.026;2022-08-21T12:09:03;29.00;94.30
31133;DHT22;17779;50.942;4.026;2022-08-21T12:11:31;28.80;95.30
31133;DHT22;17779;50.942;4.026;2022-08-21T12:16:31;29.10;95.70
31133;DHT22;17779;50.942;4.026;2022-08-21T12:19:04;30.10;94.20
31133;DHT22;17779;50.942;4.026;2022-08-21T12:21:30;29.90;93.70
31133;DHT22;17779;50.942;4.026;2022-08-21T12:24:01;29.10;95.00
31133;DHT22;17779;50.942;4.026;2022-08-21T12:29:27;28.10;96.30
31133;DHT22;17779;50.942;4.026;2022-08-21T12:31:55;27.70;97.10
31133;DHT22;17779;50.942;4.026;2022-08-21T12:34:22;27.10;97.30
31133;DHT22;17779;50.942;4.026;2022-08-21T12:36:49;26.50;98.90
31133;DHT22;17779;50.942;4.026;2022-08-21T12:39:22;26.80;98.40
31133;DHT22;17779;50.942;4.026;2022-08-21T12:42:04;27.30;98.00
31133;DHT22;17779;50.942;4.026;2022-08-21T12:44:35;27.40;98.10
31133;DHT22;17779;50.942;4.026;2022-08-21T12:47:04;28.00;97.40
31133;DHT22;17779;50.942;4.026;2022-08-21T12:49:32;27.90;97.50
31133;DHT22;17779;50.942;4.026;2022-08-21T12:54:44;28.60;97.00
31133;DHT22;17779;50.942;4.026;2022-08-21T12:57:31;28.90;96.00
31133;DHT22;17779;50.942;4.026;2022-08-21T12:59:56;29.10;95.30
31133;DHT22;17779;50.942;4.026;2022-08-21T13:02:28;28.30;96.20
31133;DHT22;17779;50.942;4.026;2022-08-21T13:04:56;28.30;95.90
31133;DHT22;17779;50.942;4.026;2022-08-21T13:07:25;28.70;96.20
31133;DHT22;17779;50.942;4.026;2022-08-21T13:10:02;30.00;95.20
31133;DHT22;17779;50.942;4.026;2022-08-21T13:12:28;31.70;92.50
31133;DHT22;17779;50.942;4.026;2022-08-21T13:14:58;30.40;92.80
31133;DHT22;17779;50.942;4.026;2022-08-21T13:17:24;29.30;93.90
31133;DHT22;17779;50.942;4.026;2022-08-21T13:22:42;28.10;96.10
31133;DHT22;17779;50.942;4.026;2022-08-21T13:25:12;28.30;95.70
31133;DHT22;17779;50.942;4.026;2022-08-21T13:27:40;27.70;95.80
31133;DHT22;17779;50.942;4.026;2022-08-21T13:30:07;27.80;95.10
31133;DHT22;17779;50.942;4.026;2022-08-21T13:32:35;27.80;95.50
31133;DHT22;17779;50.942;4.026;2022-08-21T13:35:11;28.10;95.30
31133;DHT22;17779;50.942;4.026;2022-08-21T13:37:39;28.30;95.50
31133;DHT22;17779;50.942;4.026;2022-08-21T13:40:06;27.70;96.00
31133;DHT22;17779;50.942;4.026;2022-08-21T13:42:32;27.00;97.50
31133;DHT22;17779;50.942;4.026;2022-08-21T13:44:58;26.80;97.90
31133;DHT22;17779;50.942;4.026;2022-08-21T13:47:24;26.80;98.20
31133;DHT22;17779;50.942;4.026;2022-08-21T13:49:51;26.70;98.10
31133;DHT22;17779;50.942;4.026;2022-08-21T13:52:21;26.80;97.70
31133;DHT22;17779;50.942;4.026;2022-08-21T13:57:24;26.90;97.30
31133;DHT22;17779;50.942;4.026;2022-08-21T13:59:50;27.00;96.90
31133;DHT22;17779;50.942;4.026;2022-08-21T14:02:16;27.00;97.40
31133;DHT22;17779;50.942;4.026;2022-08-21T14:05:05;27.20;97.50
31133;DHT22;17779;50.942;4.026;2022-08-21T14:07:37;27.10;97.60
31133;DHT22;17779;50.942;4.026;2022-08-21T14:10:05;27.00;98.10
31133;DHT22;17779;50.942;4.026;2022-08-21T14:12:37;27.20;97.50
31133;DHT22;17779;50.942;4.026;2022-08-21T14:15:06;27.30;97.50
31133;DHT22;17779;50.942;4.026;2022-08-21T14:17:35;27.40;97.50
31133;DHT22;17779;50.942;4.026;2022-08-21T14:20:02;27.60;97.60
31133;DHT22;17779;50.942;4.026;2022-08-21T14:22:39;27.60;97.50
31133;DHT22;17779;50.942;4.026;2022-08-21T14:27:32;27.80;97.20
31133;DHT22;17779;50.942;4.026;2022-08-21T14:30:20;27.60;97.40
31133;DHT22;17779;50.942;4.026;2022-08-21T14:32:44;27.40;97.70
31133;DHT22;17779;50.942;4.026;2022-08-21T14:35:10;26.80;97.90
31133;DHT22;17779;50.942;4.026;2022-08-21T14:37:36;26.70;98.70
31133;DHT22;17779;50.942;4.026;2022-08-21T14:40:03;26.60;98.70
31133;DHT22;17779;50.942;4.026;2022-08-21T14:42:29;26.50;99.50
31133;DHT22;17779;50.942;4.026;2022-08-21T14:44:55;26.80;98.90
31133;DHT22;17779;50.942;4.026;2022-08-21T14:47:22;26.90;98.80
31133;DHT22;17779;50.942;4.026;2022-08-21T14:49:47;26.80;98.60
31133;DHT22;17779;50.942;4.026;2022-08-21T14:52:13;26.80;98.80
31133;DHT22;17779;50.942;4.026;2022-08-21T14:54:38;26.90;98.90
31133;DHT22;17779;50.942;4.026;2022-08-21T14:57:05;26.40;99.50
31133;DHT22;17779;50.942;4.026;2022-08-21T14:59:31;26.30;99.90
31133;DHT22;17779;50.942;4.026;2022-08-21T15:01:58;26.30;99.90
31133;DHT22;17779;50.942;4.026;2022-08-21T15:04:23;26.10;99.90
31133;DHT22;17779;50.942;4.026;2022-08-21T15:06:49;26.20;99.90
31133;DHT22;17779;50.942;4.026;2022-08-21T15:09:15;26.30;99.90
31133;DHT22;17779;50.942;4.026;2022-08-21T15:11:40;26.40;99.80
31133;DHT22;17779;50.942;4.026;2022-08-21T15:14:06;26.60;99.30
31133;DHT22;17779;50.942;4.026;2022-08-21T15:16:33;26.70;99.40
31133;DHT22;17779;50.942;4.026;2022-08-21T15:18:59;26.40;99.40
31133;DHT22;17779;50.942;4.026;2022-08-21T15:21:25;26.40;99.30
31133;DHT22;17779;50.942;4.026;2022-08-21T15:23:51;26.70;98.90
31133;DHT22;17779;50.942;4.026;2022-08-21T15:26:16;26.60;99.20
31133;DHT22;17779;50.942;4.026;2022-08-21T15:28:42;26.50;99.70
31133;DHT22;17779;50.942;4.026;2022-08-21T15:31:07;26.50;99.90
31133;DHT22;17779;50.942;4.026;2022-08-21T15:33:33;26.70;99.10
31133;DHT22;17779;50.942;4.026;2022-08-21T15:35:59;26.60;99.40
31133;DHT22;17779;50.942;4.026;2022-08-21T15:38:25;26.60;99.60
31133;DHT22;17779;50.942;4.026;2022-08-21T15:40:50;26.40;99.90
31133;DHT22;17779;50.942;4.026;2022-08-21T15:43:26;26.50;99.90
31133;DHT22;17779;50.942;4.026;2022-08-21T15:45:53;26.80;99.50
31133;DHT22;17779;50.942;4.026;2022-08-21T15:48:18;26.80;99.40
31133;DHT22;17779;50.942;4.026;2022-08-21T15:50:44;26.90;99.50
31133;DHT22;17779;50.942;4.026;2022-08-21T15:53:10;26.80;99.30
31133;DHT22;17779;50.942;4.026;2022-08-21T15:55:36;26.50;99.60
31133;DHT22;17779;50.942;4.026;2022-08-21T15:58:02;26.50;99.80
31133;DHT22;17779;50.942;4.026;2022-08-21T16:00:28;26.40;99.90
31133;DHT22;17779;50.942;4.026;2022-08-21T16:02:57;26.50;99.60
31133;DHT22;17779;50.942;4.026;2022-08-21T16:05:23;26.80;99.20
31133;DHT22;17779;50.942;4.026;2022-08-21T16:07:49;26.80;99.60
31133;DHT22;17779;50.942;4.026;2022-08-21T16:10:16;26.60;99.90
31133;DHT22;17779;50.942;4.026;2022-08-21T16:12:47;26.50;99.90
31133;DHT22;17779;50.942;4.026;2022-08-21T16:15:14;26.60;99.80
31133;DHT22;17779;50.942;4.026;2022-08-21T16:17:41;26.30;99.90
31133;DHT22;17779;50.942;4.026;2022-08-21T16:20:10;26.50;99.80
31133;DHT22;17779;50.942;4.026;2022-08-21T16:22:36;26.50;99.90
31133;DHT22;17779;50.942;4.026;2022-08-21T16:25:04;26.70;99.60
31133;DHT22;17779;50.942;4.026;2022-08-21T16:27:30;26.60;98.90
31133;DHT22;17779;50.942;4.026;2022-08-21T16:29:56;26.70;99.30
31133;DHT22;17779;50.942;4.026;2022-08-21T16:32:21;26.60;99.20
31133;DHT22;17779;50.942;4.026;2022-08-21T16:34:47;26.60;99.10
31133;DHT22;17779;50.942;4.026;2022-08-21T16:37:14;26.50;99.40
31133;DHT22;17779;50.942;4.026;2022-08-21T16:42:12;26.70;99.60
31133;DHT22;17779;50.942;4.026;2022-08-21T16:44:40;26.50;99.90